• Join FlightAware (Why Join?)
  • Login
  • US Flag 
03:45PM EDT


 

Airport Tracker/Info


-or-


 

Live Flight TrackerFlight Track Log ✈ DAL268 ✈ 01-Sep-2013 ✈ KJFK - LLBG / TLV

Flight Track Log - Related Links

Times and Time Zones

All times are in EDT time to prevent confusion due to time zone crossing. See the DAL268 flight status page for this flight to view local times or setup timezone preferences in your user account.

Time Position Orientation Groundspeed Altitude Reporting Facility
EDT Latitude Longitude Course Direction KTS MPH feet Rate Location/Type
11:52PM 40.6370 -73.7800 North  Level FlightAware
12:05AM 40.9230 -73.5103 37° Northeast  Level FlightAware Approximate
12:06AM 41.0359 -73.4129 30° Northeast  Level FlightAware Approximate
12:07AM 41.1587 -73.3247 37° Northeast  Level FlightAware Approximate
12:13AM 40.6360 -73.7750 214° Southwest 145 167  Level FlightAware
12:14AM 40.6220 -73.7860 211° Southwest 176 203 500 1,800 Climbing FlightAware
12:14AM 40.6090 -73.7960 210° Southwest 175 201 1,100 1,860 Climbing FlightAware
12:14AM 40.6000 -73.8030 211° Southwest 178 205 1,500 1,080 Climbing FlightAware
12:15AM 40.5840 -73.8120 203° Southwest 197 227 1,800 780 Climbing FlightAware
12:15AM 40.5750 -73.8120 180° South 214 246 1,900 900 Climbing FlightAware
12:15AM 40.5640 -73.8090 168° South 224 258 2,100 1,380 Climbing FlightAware
12:15AM 40.5540 -73.8020 152° Southeast 233 268 2,300 960 Climbing FlightAware
12:15AM 40.5490 -73.7960 138° Southeast 244 281 2,300 660 Level FlightAware
12:15AM 40.5400 -73.7780 123° Southeast 262 302 2,500 1,380 Climbing FlightAware
12:16AM 40.5250 -73.7380 116° Southeast 277 319 3,200 1,980 Climbing FlightAware
12:16AM 40.5100 -73.6880 112° Southeast 294 338 4,200 2,340 Climbing FlightAware
12:16AM 40.5090 -73.6790 98° East 300 345 4,300 1,020 Climbing FlightAware
12:17AM 40.5120 -73.6550 81° East 310 357 4,700 1,080 Climbing FlightAware
12:17AM 40.5180 -73.6380 65° Northeast 308 354 5,000 1,560 Climbing FlightAware
12:17AM 40.5270 -73.6230 52° Northeast 315 362 5,200 1,620 Climbing FlightAware
12:17AM 40.5400 -73.6120 33° Northeast 320 368 5,500 3,360 Climbing FlightAware
12:17AM 40.5530 -73.6040 25° Northeast 315 362 6,100 4,980 Climbing FlightAware
12:17AM 40.5680 -73.6010 North 312 359 6,500 2,520 Climbing FlightAware
12:18AM 40.6110 -73.6080 353° North 321 369 7,600 2,160 Climbing FlightAware
12:18AM 40.6530 -73.6010 North 328 377 8,500 1,860 Climbing FlightAware
12:18AM 40.6700 -73.5910 24° Northeast 326 375 9,000 2,160 Climbing FlightAware
12:19AM 40.6860 -73.5790 30° Northeast 322 371 9,600 1,800 Climbing FlightAware
12:19AM 40.7400 -73.5440 26° Northeast 341 392 10,600 1,320 Climbing FlightAware
12:20AM 40.7930 -73.5120 25° Northeast 366 421 11,300 1,080 Climbing FlightAware
12:21AM 40.8460 -73.4800 25° Northeast 390 449 11,900 1,260 Climbing FlightAware
12:21AM 40.9030 -73.4430 26° Northeast 408 470 12,800 1,740 Climbing FlightAware
12:22AM 40.9380 -73.4070 38° Northeast 415 478 13,700 2,100 Climbing FlightAware
12:22AM 41.0010 -73.3160 47° Northeast 429 494 15,300 2,040 Climbing FlightAware
12:23AM 41.0400 -73.2570 49° Northeast 437 503 16,300 1,860 Climbing FlightAware
12:23AM 41.0900 -73.1800 49° Northeast 447 514 17,400 1,800 Climbing FlightAware
12:24AM 41.1400 -73.1070 48° Northeast 457 526 18,500 1,680 Climbing FlightAware
12:25AM 41.2020 -73.0120 49° Northeast 469 540 19,700 1,620 Climbing FlightAware
12:25AM 41.2510 -72.9380 49° Northeast 475 547 20,700 1,680 Climbing FlightAware
12:26AM 41.3090 -72.8490 49° Northeast 481 554 21,800 1,620 Climbing FlightAware
12:27AM 41.3540 -72.7800 49° Northeast 487 560 22,600 1,620 Climbing FlightAware
12:27AM 41.4190 -72.6820 48° Northeast 494 568 23,700 1,080 Climbing FlightAware
12:28AM 41.4810 -72.5860 49° Northeast 498 573 24,200 840 Climbing FlightAware
12:29AM 41.5460 -72.4860 49° Northeast 509 586 25,000 1,440 Climbing FlightAware
12:29AM 41.6100 -72.3860 49° Northeast 524 603 26,100 1,380 Climbing FlightAware
12:30AM 41.6790 -72.2770 50° Northeast 532 612 26,900 1,080 Climbing FlightAware
12:31AM 41.7410 -72.1820 49° Northeast 537 618 27,600 720 Climbing FlightAware
12:31AM 41.8150 -72.0660 49° Northeast 539 620 28,000 1,320 Climbing FlightAware
12:32AM 41.8640 -71.9890 49° Northeast 537 618 29,300 2,040 Climbing FlightAware
12:32AM 41.9190 -71.9070 48° Northeast 534 615 30,100 1,260 Climbing FlightAware
12:33AM 41.9730 -71.8340 45° Northeast 532 612 30,800 1,080 Climbing FlightAware
12:34AM 42.0560 -71.7270 44° Northeast 533 613 31,600 1,080 Climbing FlightAware
12:35AM 42.1480 -71.6110 43° Northeast 531 611 32,500 960 Climbing FlightAware
12:35AM 42.2030 -71.5410 43° Northeast 531 611 33,000 300 Climbing FlightAware
12:36AM 42.3060 -71.4100 43° Northeast 535 616 33,000  Level FlightAware
12:37AM 42.3990 -71.2860 45° Northeast 536 617 33,000  Level FlightAware
12:38AM 42.4720 -71.1950 43° Northeast 536 617 33,000  Level FlightAware
12:38AM 42.5480 -71.0930 45° Northeast 538 619 33,000  Level FlightAware
12:39AM 42.6380 -70.9790 43° Northeast 536 617 33,000  Level FlightAware
12:40AM 42.6860 -70.9130 45° Northeast 533 613 33,000  Level FlightAware
12:40AM 42.7430 -70.8380 44° Northeast 533 613 33,000  Level FlightAware
12:41AM 42.8660 -70.7240 34° Northeast 514 592 33,000  Level FlightAware
12:42AM 42.9400 -70.6660 30° Northeast 515 593 33,000  Level FlightAware
12:42AM 43.0110 -70.6140 28° Northeast 515 593 33,000  Level FlightAware
12:43AM 43.0790 -70.5650 28° Northeast 515 593 33,000  Level FlightAware
12:44AM 43.1430 -70.5180 28° Northeast 515 593 33,000 60 Level FlightAware
12:44AM 43.2500 -70.4450 26° Northeast 508 585 33,100  Climbing FlightAware
12:45AM 43.3160 -70.3990 27° Northeast 509 586 33,000 -120 Descending FlightAware
12:46AM 43.3870 -70.3490 27° Northeast 509 586 33,000  Level FlightAware
12:46AM 43.4730 -70.2890 27° Northeast 509 586 33,000  Level FlightAware
12:47AM 43.5460 -70.2370 27° Northeast 509 586 33,000  Level FlightAware
12:48AM 43.6190 -70.1860 27° Northeast 509 586 33,000  Level FlightAware
12:48AM 43.6920 -70.1340 27° Northeast 509 586 33,000  Level FlightAware
12:49AM 43.7580 -70.0880 27° Northeast 509 586 33,000  Level FlightAware
12:50AM 43.9210 -70.0060 20° North 518 596 33,000 60 Level FlightAware
12:50AM 44.0360 -69.9380 23° Northeast 525 604 33,100  Climbing FlightAware
12:51AM 44.1290 -69.8710 27° Northeast 528 608 33,000 -120 Descending FlightAware
12:52AM 44.2010 -69.7540 49° Northeast 532 612 33,000  Level FlightAware
12:52AM 44.2580 -69.6720 46° Northeast 532 612 33,000  Level FlightAware
12:53AM 44.3070 -69.6010 46° Northeast 532 612 33,000 60 Level FlightAware
12:54AM 44.3730 -69.5110 44° Northeast 531 611 33,100  Climbing FlightAware
12:54AM 44.4430 -69.4070 47° Northeast 530 610 33,000 -120 Descending FlightAware
12:55AM 44.5220 -69.2790 49° Northeast 530 610 33,000  Level FlightAware
12:56AM 44.5800 -69.1870 48° Northeast 530 610 33,000  Level FlightAware
12:56AM 44.6290 -69.1070 49° Northeast 530 610 33,000  Level FlightAware
12:57AM 44.7000 -68.9920 49° Northeast 530 610 33,000  Level FlightAware
12:58AM 44.7520 -68.9080 49° Northeast 530 610 33,000  Level FlightAware
12:59AM 44.8620 -68.7440 47° Northeast 526 605 33,000  Level FlightAware
12:59AM 44.9180 -68.6590 47° Northeast 526 605 33,000  Level FlightAware
01:00AM 44.9730 -68.5750 47° Northeast 526 605 33,000  Level FlightAware
01:01AM 45.0470 -68.4590 48° Northeast 526 605 33,000  Level FlightAware
01:02AM 45.1690 -68.2650 48° Northeast 525 604 33,000  Level FlightAware
01:02AM 45.2010 -68.2150 48° Northeast 525 604 33,000  Level FlightAware
01:03AM 45.2630 -68.1160 48° Northeast 526 605 33,000  Level FlightAware
01:04AM 45.3720 -67.9430 48° Northeast 526 605 33,000  Level FlightAware
01:05AM 45.4370 -67.8400 48° Northeast 526 605 33,000  Level FlightAware
01:05AM 45.4870 -67.7610 48° Northeast 526 605 33,000  Level FlightAware
01:06AM 45.5330 -67.6880 48° Northeast 526 605 33,000  Level FlightAware
01:06AM 45.5840 -67.6070 48° Northeast 526 605 33,000  Level FlightAware
01:07AM 45.6390 -67.5190 48° Northeast 526 605 33,000  Level FlightAware
01:08AM 45.7060 -67.4140 48° Northeast 526 605 33,000  Level FlightAware
01:09AM 45.7670 -67.3170 48° Northeast 526 605 33,000  Level FlightAware
01:09AM 45.8110 -67.2460 48° Northeast 526 605 33,000  Level FlightAware
01:10AM 45.8610 -67.1670 48° Northeast 526 605 33,000  Level FlightAware
01:10AM 45.9150 -67.0800 48° Northeast 526 605 33,000  Level FlightAware
01:11AM 45.9670 -66.9960 48° Northeast 526 605 33,000  Level FlightAware
01:12AM 46.0170 -66.9170 48° Northeast 526 605 33,000  Level FlightAware
01:12AM 46.0790 -66.8170 48° Northeast 526 605 33,000  Level FlightAware
01:14AM 46.3333 -66.3333 48° Northeast 520 598 33,000  Level Moncton Center
01:15AM 46.4333 -66.1667 49° Northeast 520 598 33,000  Level Moncton Center
01:16AM 46.5167 -66.0000 54° Northeast 520 598 33,000  Level Moncton Center
01:17AM 46.6167 -65.8333 49° Northeast 520 598 33,000  Level Moncton Center
01:18AM 46.7000 -65.6833 51° Northeast 520 598 33,000  Level Moncton Center
01:19AM 46.8000 -65.5167 49° Northeast 520 598 33,000  Level Moncton Center
01:20AM 46.9000 -65.3500 49° Northeast 520 598 33,000  Level Moncton Center
01:21AM 47.0000 -65.2000 46° Northeast 520 598 33,000  Level Moncton Center
01:22AM 47.0833 -65.0333 54° Northeast 520 598 33,000  Level Moncton Center
01:23AM 47.1833 -64.8667 49° Northeast 520 598 33,000  Level Moncton Center
01:24AM 47.2833 -64.7000 48° Northeast 520 598 33,000  Level Moncton Center
01:25AM 47.3667 -64.5500 51° Northeast 520 598 33,000  Level Moncton Center
01:26AM 47.4667 -64.3667 51° Northeast 520 598 33,000  Level Moncton Center
01:27AM 47.5500 -64.2000 53° Northeast 520 598 33,000  Level Moncton Center
01:28AM 47.6333 -64.0500 50° Northeast 520 598 33,000  Level Moncton Center
01:29AM 47.7333 -63.8667 51° Northeast 520 598 33,000  Level Moncton Center
01:30AM 47.8167 -63.7000 53° Northeast 520 598 33,000  Level Moncton Center
01:31AM 47.9167 -63.5167 51° Northeast 520 598 33,000  Level Moncton Center
01:32AM 48.0000 -63.3500 53° Northeast 520 598 33,000  Level Moncton Center
01:33AM 48.1000 -63.1667 51° Northeast 520 598 33,000  Level Moncton Center
01:34AM 48.1833 -63.0167 50° Northeast 530 610 33,000  Level Moncton Center
01:35AM 48.2667 -62.8333 56° Northeast 530 610 33,000  Level Gander Center
01:36AM 48.3667 -62.6667 48° Northeast 530 610 33,000  Level Gander Center
01:37AM 48.4667 -62.4833 51° Northeast 530 610 33,000  Level Gander Center
01:38AM 48.5500 -62.3000 55° Northeast 530 610 33,000  Level Gander Center
01:39AM 48.6333 -62.1500 50° Northeast 530 610 33,000  Level Gander Center
01:40AM 48.7333 -61.9333 55° Northeast 540 621 33,000  Level Gander Center
01:41AM 48.8167 -61.7667 53° Northeast 530 610 33,000  Level Gander Center
01:42AM 48.9000 -61.5833 55° Northeast 530 610 33,000  Level Gander Center
01:43AM 49.0000 -61.4167 48° Northeast 540 621 33,000  Level Gander Center
01:44AM 49.0833 -61.2333 55° Northeast 540 621 33,000  Level Gander Center
01:45AM 49.1833 -61.0333 53° Northeast 540 621 33,000  Level Gander Center
01:46AM 49.2667 -60.8667 52° Northeast 540 621 33,100 480 Climbing Gander Center
01:47AM 49.3500 -60.6667 57° Northeast 530 610 34,000 420 Climbing Gander Center
01:48AM 49.4333 -60.4833 55° Northeast 540 621 34,000  Level Gander Center
01:49AM 49.5333 -60.3000 50° Northeast 540 621 34,000  Level Gander Center
01:50AM 49.6167 -60.1167 55° Northeast 540 621 34,000  Level Gander Center
01:51AM 49.7000 -59.9333 55° Northeast 540 621 34,000  Level Gander Center
01:52AM 49.7833 -59.7333 57° Northeast 540 621 34,000  Level Gander Center
01:53AM 49.8667 -59.5500 55° Northeast 540 621 34,000  Level Gander Center
01:54AM 49.9667 -59.3667 50° Northeast 540 621 34,000  Level Gander Center
01:55AM 50.0500 -59.1667 57° Northeast 540 621 34,000  Level Gander Center
01:56AM 50.1333 -58.9833 55° Northeast 540 621 34,000  Level Gander Center
01:57AM 50.2333 -58.7667 54° Northeast 540 621 34,000  Level Gander Center
01:58AM 50.3000 -58.5833 60° Northeast 540 621 34,000  Level Gander Center
01:59AM 50.3833 -58.3667 59° Northeast 540 621 34,000  Level Gander Center
02:00AM 50.4667 -58.1833 54° Northeast 540 621 34,000  Level Gander Center
02:01AM 50.5333 -57.9667 64° Northeast 540 621 34,000  Level Gander Center
02:02AM 50.6167 -57.7833 54° Northeast 530 610 34,000  Level Gander Center
02:03AM 50.7000 -57.5833 57° Northeast 530 610 34,000  Level Gander Center
02:04AM 50.7667 -57.4000 60° Northeast 530 610 34,000  Level Gander Center
02:05AM 50.8500 -57.1833 59° Northeast 540 621 34,000  Level Gander Center
02:06AM 50.9333 -56.9833 56° Northeast 540 621 34,000  Level Gander Center
02:07AM 51.0000 -56.7667 64° Northeast 540 621 34,000  Level Gander Center
02:08AM 51.0833 -56.5667 56° Northeast 540 621 34,000  Level Gander Center
02:09AM 51.1500 -56.3500 64° Northeast 540 621 34,000  Level Gander Center
02:10AM 51.2333 -56.1500 56° Northeast 540 621 34,000  Level Gander Center
02:11AM 51.3167 -55.9333 58° Northeast 550 633 34,000  Level Gander Center
02:12AM 51.3833 -55.7333 62° Northeast 540 621 34,000  Level Gander Center
02:13AM 51.4500 -55.5333 62° Northeast 540 621 34,000  Level Gander Center
02:14AM 51.5333 -55.3167 58° Northeast 530 610 34,000  Level Gander Center
02:15AM 51.6000 -55.1167 62° Northeast 530 610 34,000  Level Gander Center
02:16AM 51.6833 -54.8833 60° Northeast 540 621 34,000  Level Gander Center
02:17AM 51.7500 -54.6833 62° Northeast 530 610 34,000  Level Gander Center
02:18AM 51.8333 -54.4833 56° Northeast 530 610 34,000  Level Gander Center
02:19AM 51.9000 -54.2500 65° Northeast 540 621 34,000  Level Gander Center
02:20AM 51.9500 -54.0833 64° Northeast 530 610 34,000  Level Gander Center
02:21AM 52.0500 -53.8500 55° Northeast 530 610 34,000  Level Gander Center
02:22AM 52.1000 -53.6500 68° East 540 621 34,000  Level Gander Center
02:23AM 52.1833 -53.4167 60° Northeast 530 610 34,000  Level Gander Center
02:24AM 52.2333 -53.2167 68° East 530 610 34,000  Level Gander Center
02:25AM 52.3000 -52.9500 68° East 550 633 34,000  Level Gander Center
02:26AM 52.3500 -52.7500 68° East 540 621 34,000  Level Gander Center
02:27AM 52.4000 -52.5167 71° East 540 621 34,000  Level Gander Center
02:28AM 52.4500 -52.3000 69° East 550 633 34,000  Level Gander Center
02:29AM 52.5167 -52.0667 65° Northeast 550 633 34,000  Level Gander Center
02:30AM 52.5667 -51.8333 70° East 550 633 34,000  Level Gander Center
02:31AM 52.6167 -51.5667 73° East 550 633 34,000  Level Gander Center
02:32AM 52.6833 -51.3333 65° Northeast 550 633 34,000  Level Gander Center
02:34AM 52.7634 -51.0038 68° East  Level FlightAware Approximate
02:35AM 52.8333 -50.6333 68° East 320 368 34,000  Level Gander Center
02:36AM 52.8500 -50.4000 83° East 450 518 34,000  Level Gander Center
02:38AM 52.9817 -50.0491 58° Northeast  Level FlightAware Approximate
02:45AM 53.3768 -48.4576 67° East  Level FlightAware Approximate
02:46AM 53.4304 -48.2288 68° East  Level FlightAware Approximate
02:47AM 53.4836 -47.9994 69° East  Level FlightAware Approximate
02:48AM 53.5364 -47.7693 69° East  Level FlightAware Approximate
02:49AM 53.5887 -47.5388 69° East  Level FlightAware Approximate
02:50AM 53.6406 -47.3076 69° East  Level FlightAware Approximate
02:51AM 53.6921 -47.0759 69° East  Level FlightAware Approximate
02:52AM 53.7431 -46.8436 70° East  Level FlightAware Approximate
02:53AM 53.7936 -46.6108 70° East  Level FlightAware Approximate
02:54AM 53.8437 -46.3774 70° East  Level FlightAware Approximate
02:55AM 53.8934 -46.1434 70° East  Level FlightAware Approximate
02:56AM 53.9426 -45.9089 70° East  Level FlightAware Approximate
02:57AM 53.9913 -45.6739 70° East  Level FlightAware Approximate
02:58AM 54.0396 -45.4382 71° East  Level FlightAware Approximate
02:59AM 54.0874 -45.2021 71° East  Level FlightAware Approximate
03:00AM 54.1347 -44.9654 71° East  Level FlightAware Approximate
03:01AM 54.1816 -44.7281 71° East  Level FlightAware Approximate
03:02AM 54.2280 -44.4904 71° East  Level FlightAware Approximate
03:03AM 54.2739 -44.2521 72° East  Level FlightAware Approximate
03:04AM 54.3194 -44.0132 72° East  Level FlightAware Approximate
03:05AM 54.3644 -43.7739 72° East  Level FlightAware Approximate
03:06AM 54.4089 -43.5340 72° East  Level FlightAware Approximate
03:07AM 54.4530 -43.2936 72° East  Level FlightAware Approximate
03:08AM 54.4966 -43.0527 73° East  Level FlightAware Approximate
03:09AM 54.5396 -42.8112 73° East  Level FlightAware Approximate
03:10AM 54.5823 -42.5693 73° East  Level FlightAware Approximate
03:11AM 54.6244 -42.3269 73° East  Level FlightAware Approximate
03:12AM 54.6660 -42.0839 73° East  Level FlightAware Approximate
03:13AM 54.7072 -41.8405 74° East  Level FlightAware Approximate
03:14AM 54.7478 -41.5966 74° East  Level FlightAware Approximate
03:15AM 54.7880 -41.3522 74° East  Level FlightAware Approximate
03:16AM 54.8277 -41.1073 74° East  Level FlightAware Approximate
03:17AM 54.8669 -40.8619 74° East  Level FlightAware Approximate
03:18AM 54.9055 -40.6160 75° East  Level FlightAware Approximate
03:19AM 54.9437 -40.3697 75° East  Level FlightAware Approximate
03:20AM 54.9814 -40.1229 75° East  Level FlightAware Approximate
03:21AM 55.0289 -39.8818 67° East  Level FlightAware Approximate
03:22AM 55.0861 -39.6461 67° East  Level FlightAware Approximate
03:23AM 55.1428 -39.4098 67° East  Level FlightAware Approximate
03:24AM 55.1991 -39.1727 67° East  Level FlightAware Approximate
03:25AM 55.2549 -38.9350 68° East  Level FlightAware Approximate
03:26AM 55.3102 -38.6966 68° East  Level FlightAware Approximate
03:27AM 55.3651 -38.4576 68° East  Level FlightAware Approximate
03:28AM 55.4195 -38.2179 68° East  Level FlightAware Approximate
03:29AM 55.4735 -37.9775 68° East  Level FlightAware Approximate
03:30AM 55.5288 -37.7378 68° East  Level FlightAware Approximate
03:31AM 55.5840 -37.4977 68° East  Level FlightAware Approximate
03:32AM 55.6388 -37.2569 68° East  Level FlightAware Approximate
03:33AM 55.6931 -37.0155 68° East  Level FlightAware Approximate
03:34AM 55.7469 -36.7734 68° East  Level FlightAware Approximate
03:35AM 55.8003 -36.5306 69° East  Level FlightAware Approximate
03:36AM 55.8531 -36.2871 69° East  Level FlightAware Approximate
03:37AM 55.9055 -36.0430 69° East  Level FlightAware Approximate
03:38AM 55.9572 -35.7981 70° East  Level FlightAware Approximate
03:39AM 56.0073 -35.5518 70° East  Level FlightAware Approximate
03:40AM 56.0569 -35.3049 70° East  Level FlightAware Approximate
03:41AM 56.1060 -35.0573 70° East  Level FlightAware Approximate
03:42AM 56.1546 -34.8091 71° East  Level FlightAware Approximate
03:43AM 56.2027 -34.5603 71° East  Level FlightAware Approximate
03:44AM 56.2507 -34.3111 71° East  Level FlightAware Approximate
03:45AM 56.2990 -34.0618 71° East  Level FlightAware Approximate
03:46AM 56.3467 -33.8118 71° East  Level FlightAware Approximate
03:47AM 56.3940 -33.5612 71° East  Level FlightAware Approximate
03:48AM 56.4408 -33.3100 71° East  Level FlightAware Approximate
03:49AM 56.4870 -33.0582 72° East  Level FlightAware Approximate
03:50AM 56.5327 -32.8057 72° East  Level FlightAware Approximate
03:51AM 56.5780 -32.5527 72° East  Level FlightAware Approximate
03:52AM 56.6227 -32.2990 72° East  Level FlightAware Approximate
03:53AM 56.6669 -32.0448 72° East  Level FlightAware Approximate
03:54AM 56.7105 -31.7900 73° East  Level FlightAware Approximate
03:55AM 56.7537 -31.5345 73° East  Level FlightAware Approximate
03:56AM 56.7963 -31.2785 73° East  Level FlightAware Approximate
03:57AM 56.8384 -31.0219 73° East  Level FlightAware Approximate
03:58AM 56.8800 -30.7648 73° East  Level FlightAware Approximate
03:59AM 56.9211 -30.5070 74° East  Level FlightAware Approximate
04:00AM 56.9616 -30.2487 74° East  Level FlightAware Approximate
04:01AM 57.0004 -29.9895 86° East  Level FlightAware Approximate
04:02AM 57.0108 -29.7210 86° East  Level FlightAware Approximate
04:03AM 57.0207 -29.4523 86° East  Level FlightAware Approximate
04:04AM 57.0299 -29.1835 86° East  Level FlightAware Approximate
04:05AM 57.0386 -28.9145 86° East  Level FlightAware Approximate
04:06AM 57.0468 -28.6454 87° East  Level FlightAware Approximate
04:07AM 57.0543 -28.3762 87° East  Level FlightAware Approximate
04:08AM 57.0613 -28.1069 87° East  Level FlightAware Approximate
04:09AM 57.0676 -27.8375 87° East  Level FlightAware Approximate
04:10AM 57.0734 -27.5680 88° East  Level FlightAware Approximate
04:11AM 57.0787 -27.2985 88° East  Level FlightAware Approximate
04:12AM 57.0833 -27.0288 88° East  Level FlightAware Approximate
04:13AM 57.0874 -26.7591 88° East  Level FlightAware Approximate
04:14AM 57.0909 -26.4893 89° East  Level FlightAware Approximate
04:15AM 57.0938 -26.2195 89° East  Level FlightAware Approximate
04:16AM 57.0961 -25.9497 89° East  Level FlightAware Approximate
04:17AM 57.0979 -25.6798 89° East  Level FlightAware Approximate
04:18AM 57.0990 -25.4100 89° East  Level FlightAware Approximate
04:19AM 57.0996 -25.1400 90° East  Level FlightAware Approximate
04:20AM 57.0996 -24.8701 90° East  Level FlightAware Approximate
04:21AM 57.0991 -24.6002 90° East  Level FlightAware Approximate
04:22AM 57.0979 -24.3303 90° East  Level FlightAware Approximate
04:23AM 57.0962 -24.0605 91° East  Level FlightAware Approximate
04:24AM 57.0939 -23.7906 91° East  Level FlightAware Approximate
04:25AM 57.0910 -23.5208 91° East  Level FlightAware Approximate
04:26AM 57.0875 -23.2511 91° East  Level FlightAware Approximate
04:27AM 57.0835 -22.9813 91° East  Level FlightAware Approximate
04:28AM 57.0788 -22.7117 92° East  Level FlightAware Approximate
04:29AM 57.0737 -22.4421 92° East  Level FlightAware Approximate
04:30AM 57.0679 -22.1726 92° East  Level FlightAware Approximate
04:31AM 57.0615 -21.9037 92° East  Level FlightAware Approximate
04:32AM 57.0546 -21.6349 93° East  Level FlightAware Approximate
04:33AM 57.0471 -21.3661 93° East  Level FlightAware Approximate
04:34AM 57.0390 -21.0975 93° East  Level FlightAware Approximate
04:35AM 57.0304 -20.8290 93° East  Level FlightAware Approximate
04:36AM 57.0211 -20.5606 94° East  Level FlightAware Approximate
04:37AM 57.0113 -20.2924 94° East  Level FlightAware Approximate
04:38AM 57.0010 -20.0243 94° East  Level FlightAware Approximate
04:39AM 56.9597 -19.7672 108° East  Level FlightAware Approximate
04:40AM 56.9149 -19.5119 108° East  Level FlightAware Approximate
04:41AM 56.8696 -19.2571 108° East  Level FlightAware Approximate
04:42AM 56.8237 -19.0029 108° East  Level FlightAware Approximate
04:43AM 56.7774 -18.7494 108° East  Level FlightAware Approximate
04:44AM 56.7305 -18.4965 109° East  Level FlightAware Approximate
04:45AM 56.6831 -18.2442 109° East  Level FlightAware Approximate
04:46AM 56.6352 -17.9926 109° East  Level FlightAware Approximate
04:47AM 56.5868 -17.7416 109° East  Level FlightAware Approximate
04:48AM 56.5380 -17.4917 109° East  Level FlightAware Approximate
04:49AM 56.4887 -17.2424 110° East  Level FlightAware Approximate
04:50AM 56.4389 -16.9938 110° East  Level FlightAware Approximate
04:51AM 56.3887 -16.7458 110° East  Level FlightAware Approximate
04:52AM 56.3379 -16.4985 110° East  Level FlightAware Approximate
04:53AM 56.2866 -16.2519 110° East  Level FlightAware Approximate
04:54AM 56.2349 -16.0059 111° Southeast  Level FlightAware Approximate
04:55AM 56.1826 -15.7605 111° Southeast  Level FlightAware Approximate
04:56AM 56.1299 -15.5159 111° Southeast  Level FlightAware Approximate
04:56AM 56.3900 -12.3600 111° Southeast 523 602 37,000  Level FlightAware
04:56AM 56.3550 -12.2210 114° Southeast 523 602 37,100  Climbing FlightAware
04:57AM 56.0767 -15.2719 111° Southeast  Level FlightAware Approximate
04:57AM 56.3160 -12.0620 114° Southeast 523 602 37,000  Level FlightAware
04:58AM 56.2810 -11.9230 114° Southeast 520 598 37,000 60 Level FlightAware
04:58AM 56.2460 -11.7840 114° Southeast 521 600 37,100  Climbing FlightAware
04:59AM 56.2060 -11.6220 114° Southeast 521 600 37,000 -120 Descending FlightAware
04:59AM 56.1760 -11.5080 115° Southeast 522 601 37,000  Level FlightAware
05:00AM 56.1400 -11.3650 114° Southeast 522 601 37,000 60 Level FlightAware
05:01AM 56.1010 -11.2150 115° Southeast 522 601 37,100 60 Climbing FlightAware
05:01AM 56.0700 -11.0960 115° Southeast 523 602 37,100  Level FlightAware
05:02AM 56.0280 -10.9350 115° Southeast 526 605 37,100 -120 Level FlightAware
05:02AM 55.9970 -10.8170 115° Southeast 527 606 37,000 -120 Descending FlightAware
05:03AM 55.9600 -10.6800 116° Southeast 527 606 37,000  Level FlightAware
05:04AM 55.9240 -10.5420 115° Southeast 527 606 37,000  Level FlightAware
05:04AM 55.8870 -10.4050 116° Southeast 528 608 37,000  Level FlightAware
05:05AM 55.8500 -10.2680 116° Southeast 528 608 37,000 60 Level FlightAware
05:05AM 55.8080 -10.1120 116° Southeast 528 608 37,100  Climbing FlightAware
05:06AM 55.7770 -9.9950 115° Southeast 527 606 37,000 -120 Descending FlightAware
05:06AM 55.7380 -9.8550 116° Southeast 524 603 37,000  Level FlightAware
05:07AM 55.7010 -9.7190 116° Southeast 525 604 37,000 60 Level FlightAware
05:08AM 55.6640 -9.5830 116° Southeast 524 603 37,100 60 Climbing FlightAware
05:08AM 55.6260 -9.4520 117° Southeast 525 604 37,100  Level FlightAware
05:09AM 55.5870 -9.3130 116° Southeast 524 603 37,100  Level FlightAware
05:09AM 55.5500 -9.1780 116° Southeast 523 602 37,100 -120 Level FlightAware
05:10AM 55.5120 -9.0440 117° Southeast 523 602 37,000 -120 Descending FlightAware
05:11AM 55.4740 -8.9130 117° Southeast 523 602 37,000  Level FlightAware
05:11AM 55.4269 -8.7471 117° Southeast 492 566 37,000 120 Level FlightAware UK
05:11AM 55.4190 -8.7220 117° Southeast 527 606 37,100  Climbing FlightAware
05:12AM 55.3800 -8.5880 117° Southeast 528 608 37,000  Descending FlightAware
05:13AM 55.3410 -8.4510 117° Southeast 528 608 37,100  Climbing FlightAware
05:13AM 55.3020 -8.3220 118° Southeast 528 608 37,000  Descending FlightAware
05:14AM 55.2630 -8.1850 118° Southeast 527 606 37,100  Climbing FlightAware
05:14AM 55.2599 -8.1750 118° Southeast 492 566 37,000 -240 Descending FlightAware UK
05:14AM 55.2261 -8.0615 118° Southeast 492 566 37,000  Level FlightAware UK
05:14AM 55.2240 -8.0520 118° Southeast 528 608 37,000  Level FlightAware
05:15AM 55.1840 -7.9200 118° Southeast 526 605 37,000 60 Level FlightAware
05:15AM 55.1450 -7.7920 118° Southeast 528 608 37,100  Climbing FlightAware
05:16AM 55.1050 -7.6560 117° Southeast 528 608 37,000  Descending FlightAware
05:17AM 55.0640 -7.5210 118° Southeast 525 604 37,100  Climbing FlightAware
05:17AM 55.0219 -7.3833 118° Southeast 494 568 37,000  Descending FlightAware UK
05:17AM 55.0230 -7.3890 118° Southeast 526 605 37,100  Climbing FlightAware
05:18AM 54.9873 -7.2695 118° Southeast 494 568 37,000 -180 Descending FlightAware UK
05:18AM 54.9840 -7.2610 118° Southeast 525 604 37,000 120 Level FlightAware
05:18AM 54.9430 -7.1260 118° Southeast 524 603 37,100 60 Climbing FlightAware
05:19AM 54.8970 -6.9810 119° Southeast 523 602 37,100 -120 Level FlightAware
05:20AM 54.8560 -6.8470 118° Southeast 525 604 37,000 -120 Descending FlightAware
05:20AM 54.8139 -6.7109 118° Southeast 496 571 37,000  Level FlightAware UK
05:20AM 54.8100 -6.7020 118° Southeast 525 604 37,000  Level FlightAware
05:21AM 54.7750 -6.5870 118° Southeast 524 603 37,000  Level FlightAware
05:21AM 54.7340 -6.4580 119° Southeast 523 602 37,000 60 Level FlightAware
05:22AM 54.6930 -6.3330 120° Southeast 521 600 37,100  Climbing FlightAware
05:23AM 54.6480 -6.2000 120° Southeast 525 604 37,000 -120 Descending FlightAware
05:23AM 54.6000 -6.0840 126° Southeast 522 601 37,000  Level FlightAware
05:24AM 54.5515 -5.9542 126° Southeast 492 566 37,000  Level FlightAware UK
05:24AM 54.5520 -5.9550 126° Southeast 523 602 37,000  Level FlightAware
05:24AM 54.4950 -5.8430 131° Southeast 517 595 37,000 60 Level FlightAware
05:25AM 54.4260 -5.7510 142° Southeast 510 587 37,100 60 Climbing FlightAware
05:26AM 54.3670 -5.6820 146° Southeast 510 587 37,100  Level FlightAware
05:26AM 54.2930 -5.5900 144° Southeast 512 589 37,100  Level FlightAware
05:27AM 54.2380 -5.4920 134° Southeast 520 598 37,100 -120 Level FlightAware
05:27AM 54.1893 -5.3752 134° Southeast 496 571 37,000  Descending FlightAware UK
05:27AM 54.1870 -5.3730 134° Southeast 522 601 37,100  Climbing FlightAware
05:28AM 54.1400 -5.2630 126° Southeast 522 601 37,000  Descending FlightAware
05:28AM 54.0880 -5.1360 125° Southeast 521 600 37,100  Climbing FlightAware
05:29AM 54.0420 -5.0300 126° Southeast 520 598 37,000  Descending FlightAware
05:30AM 53.9920 -4.9150 126° Southeast 522 601 37,100 60 Climbing FlightAware
05:30AM 53.9380 -4.7890 126° Southeast 523 602 37,100 -120 Level FlightAware
05:31AM 53.8880 -4.6740 126° Southeast 522 601 37,000  Descending FlightAware
05:31AM 53.8390 -4.5720 129° Southeast 523 602 37,100  Climbing FlightAware
05:32AM 53.7809 -4.4506 129° Southeast 494 568 37,000  Descending FlightAware UK
05:32AM 53.7810 -4.4520 129° Southeast 524 603 37,100  Climbing FlightAware
05:32AM 53.7350 -4.3560 129° Southeast 524 603 37,000  Descending FlightAware
05:33AM 53.6770 -4.2350 129° Southeast 524 603 37,100 60 Climbing FlightAware
05:34AM 53.6220 -4.1210 129° Southeast 523 602 37,100  Level FlightAware
05:34AM 53.5680 -4.0070 129° Southeast 522 601 37,100 -120 Level FlightAware
05:35AM 53.5190 -3.9060 129° Southeast 521 600 37,000 -240 Descending FlightAware
05:35AM 53.5165 -3.8976 129° Southeast 492 566 37,000  Level FlightAware UK
05:35AM 53.4608 -3.7837 129° Southeast 522 601 37,000 60 Level FlightAware ADS-B
05:36AM 53.4110 -3.6810 129° Southeast 521 600 37,100  Climbing FlightAware
05:36AM 53.3962 -3.6525 131° Southeast 522 601 37,000  Descending FlightAware ADS-B
05:37AM 53.3468 -3.5525 130° Southeast 521 600 37,100  Climbing FlightAware ADS-B
05:37AM 53.2981 -3.4532 129° Southeast 521 600 37,000  Descending FlightAware ADS-B
05:38AM 53.2500 -3.3540 129° Southeast 520 598 37,100 60 Climbing FlightAware
05:38AM 53.2111 -3.2766 130° Southeast 521 600 37,100  Level FlightAware ADS-B
05:39AM 53.1642 -3.1812 129° Southeast 520 598 37,100  Level FlightAware ADS-B
05:39AM 53.1157 -3.0859 130° Southeast 520 598 37,100  Level FlightAware ADS-B
05:40AM 53.0651 -2.9846 130° Southeast 520 598 37,100 -120 Level FlightAware ADS-B
05:40AM 53.0126 -2.8777 129° Southeast 521 600 37,000 -120 Descending FlightAware ADS-B
05:41AM 52.9648 -2.7830 129° Southeast 498 573 37,000  Level FlightAware UK
05:41AM 52.9338 -2.7246 129° Southeast 521 600 37,000 60 Level FlightAware ADS-B
05:42AM 52.8792 -2.6154 130° Southeast 520 598 37,100  Climbing FlightAware ADS-B
05:42AM 52.8325 -2.5241 130° Southeast 520 598 37,000 -120 Descending FlightAware ADS-B
05:43AM 52.7862 -2.4337 130° Southeast 519 597 37,000 60 Level FlightAware ADS-B
05:43AM 52.7326 -2.3376 133° Southeast 517 595 37,100  Climbing FlightAware ADS-B
05:44AM 52.6749 -2.2368 133° Southeast 516 594 37,000 -120 Descending FlightAware ADS-B
05:44AM 52.6258 -2.1510 133° Southeast 515 593 37,000  Level FlightAware ADS-B
05:45AM 52.5769 -2.0627 132° Southeast 515 593 37,000  Level FlightAware ADS-B
05:45AM 52.5280 -1.9771 133° Southeast 515 593 37,000 60 Level FlightAware ADS-B
05:46AM 52.4792 -1.8917 133° Southeast 514 592 37,100  Climbing FlightAware ADS-B
05:46AM 52.4293 -1.8065 134° Southeast 516 594 37,000 -120 Descending FlightAware ADS-B
05:47AM 52.3764 -1.7128 133° Southeast 517 595 37,000 60 Level FlightAware ADS-B
05:48AM 52.3211 -1.6190 134° Southeast 517 595 37,100  Climbing FlightAware ADS-B
05:48AM 52.2654 -1.5225 133° Southeast 518 596 37,000  Descending FlightAware ADS-B
05:49AM 52.2108 -1.4289 134° Southeast 520 598 37,100  Climbing FlightAware ADS-B
05:49AM 52.1608 -1.3440 134° Southeast 520 598 37,000 -120 Descending FlightAware ADS-B
05:50AM 52.1095 -1.2562 134° Southeast 520 598 37,000 60 Level FlightAware ADS-B
05:50AM 52.0594 -1.1717 134° Southeast 521 600 37,100  Climbing FlightAware ADS-B
05:51AM 52.0094 -1.0873 134° Southeast 520 598 37,000  Descending FlightAware ADS-B
05:51AM 51.9558 -0.9947 133° Southeast 520 598 37,100 60 Climbing FlightAware ADS-B
05:52AM 51.9049 -0.9107 134° Southeast 520 598 37,100  Level FlightAware ADS-B
05:52AM 51.8773 -0.8622 133° Southeast 520 598 37,100  Level FlightAware ADS-B
05:52AM 51.8550 -0.8169 129° Southeast 520 598 37,100  Level FlightAware ADS-B
05:53AM 51.8236 -0.7390 123° Southeast 520 598 37,100  Level FlightAware ADS-B
05:53AM 51.8091 -0.6982 120° Southeast 520 598 37,100  Level FlightAware ADS-B
05:53AM 51.7765 -0.5867 115° Southeast 519 597 37,100 -120 Level FlightAware ADS-B
05:54AM 51.7450 -0.4820 116° Southeast 518 596 37,000 -120 Descending FlightAware ADS-B
05:54AM 51.7137 -0.3778 116° Southeast 518 596 37,000  Level FlightAware ADS-B
05:55AM 51.6817 -0.2705 116° Southeast 517 595 37,000 60 Level FlightAware ADS-B
05:55AM 51.6501 -0.1667 116° Southeast 517 595 37,100  Climbing FlightAware ADS-B
05:56AM 51.6181 -0.0598 116° Southeast 517 595 37,000  Descending FlightAware ADS-B
05:56AM 51.5825 0.0574 116° Southeast 517 595 37,100  Climbing FlightAware ADS-B
05:57AM 51.5503 0.1604 117° Southeast 516 594 37,000  Descending FlightAware ADS-B
05:57AM 51.5262 0.2393 116° Southeast 517 595 37,100  Climbing FlightAware ADS-B
05:58AM 51.4930 0.3448 117° Southeast 517 595 37,000  Descending FlightAware ADS-B
05:58AM 51.4580 0.4536 117° Southeast 517 595 37,100 60 Climbing FlightAware ADS-B
05:59AM 51.4251 0.5556 117° Southeast 517 595 37,100 -120 Level FlightAware ADS-B
05:59AM 51.3903 0.6643 117° Southeast 517 595 37,000 -120 Descending FlightAware ADS-B
06:00AM 51.3543 0.7731 118° Southeast 519 597 37,000  Level FlightAware ADS-B
06:01AM 51.3186 0.8852 117° Southeast 519 597 37,000 60 Level FlightAware ADS-B
06:01AM 51.2849 0.9869 118° Southeast 519 597 37,100  Climbing FlightAware ADS-B
06:02AM 51.2503 1.0921 118° Southeast 519 597 37,000 -180 Descending FlightAware ADS-B
06:02AM 51.2342 1.1435 117° Southeast 518 596 37,000 120 Level FlightAware ADS-B
06:02AM 51.2159 1.2564 104° East 514 592 37,100 60 Climbing FlightAware ADS-B
06:03AM 51.1980 1.4390 99° East 511 588 37,100 -120 Level FlightAware
06:04AM 51.1890 1.5700 96° East 511 588 37,000 -120 Descending FlightAware
06:04AM 51.1780 1.7080 97° East 511 588 37,000  Level FlightAware
06:05AM 51.1640 1.8300 100° East 513 590 37,000  Level FlightAware
06:05AM 51.1458 1.9481 100° East 496 571 37,000  Level FlightAware UK
06:05AM 51.1450 1.9510 100° East 512 589 37,000  Level FlightAware
06:06AM 51.1230 2.0930 100° East 511 588 37,000  Level FlightAware
06:06AM 51.1214 2.1018 100° East 496 571 37,000  Level FlightAware UK
06:07AM 51.1047 2.2111 100° East 496 571 37,000 120 Level FlightAware UK
06:07AM 51.1030 2.2240 100° East 510 587 37,100 180 Climbing FlightAware
06:07AM 51.0900 2.3110 103° East 510 587 37,100 -120 Level FlightAware
06:08AM 51.0720 2.4297 103° East 496 571 37,000 -180 Descending FlightAware UK
06:08AM 51.0710 2.4350 103° East 508 585 37,000  Level FlightAware
06:08AM 51.0490 2.5800 104° East 506 582 37,000  Level FlightAware
06:09AM 51.0290 2.7130 103° East 505 581 37,000  Level FlightAware
06:10AM 51.0070 2.8420 105° East 505 581 37,000  Level FlightAware
06:10AM 50.9910 2.9460 104° East 505 581 37,000  Level FlightAware
06:11AM 50.9680 3.0820 105° East 506 582 37,000  Level FlightAware
06:11AM 50.9438 3.2274 105° East 490 564 37,000  Level FlightAware UK
06:11AM 50.9520 3.1750 105° East 506 582 37,000  Level FlightAware
06:12AM 50.9240 3.3430 105° East 507 583 37,000  Level FlightAware
06:13AM 50.9010 3.4800 105° East 508 585 37,000  Level FlightAware
06:13AM 50.8790 3.6090 105° East 509 586 37,000  Level FlightAware
06:14AM 50.8600 3.7227 105° East 494 568 37,000  Level FlightAware UK
06:14AM 50.8580 3.7340 105° East 509 586 37,000  Level FlightAware
06:14AM 50.8339 3.8735 105° East 496 571 37,000 120 Level FlightAware UK
06:14AM 50.8330 3.8740 105° East 510 587 37,100  Climbing FlightAware
06:15AM 50.8140 3.9890 105° East 509 586 37,000 -120 Descending FlightAware
06:15AM 50.7930 4.1070 106° East 509 586 37,000  Level FlightAware
06:16AM 50.7700 4.2390 105° East 509 586 37,000  Level FlightAware
06:17AM 50.7490 4.3540 106° East 510 587 37,000  Level FlightAware
06:17AM 50.7240 4.4970 105° East 510 587 37,000  Level FlightAware
06:18AM 50.6990 4.5980 111° Southeast 518 596 37,000  Level FlightAware
06:18AM 50.6510 4.7250 121° Southeast 521 600 37,000  Level FlightAware
06:19AM 50.6070 4.8390 121° Southeast 521 600 37,000  Level FlightAware
06:20AM 50.5640 4.9480 122° Southeast 523 602 37,000  Level FlightAware
06:20AM 50.5200 5.0520 124° Southeast 522 601 37,000 60 Level FlightAware
06:21AM 50.4770 5.1530 124° Southeast 522 601 37,100  Climbing FlightAware
06:21AM 50.4260 5.2770 123° Southeast 522 601 37,000 -120 Descending FlightAware
06:22AM 50.3780 5.3910 123° Southeast 522 601 37,000  Level FlightAware
06:22AM 50.3330 5.4980 123° Southeast 522 601 37,000  Level FlightAware
06:23AM 50.2900 5.5980 124° Southeast 523 602 37,000  Level FlightAware
06:24AM 50.2310 5.7370 124° Southeast 523 602 37,000  Level FlightAware
06:24AM 50.1900 5.8310 124° Southeast 523 602 37,000  Level FlightAware
06:25AM 50.1340 5.9630 123° Southeast 523 602 37,000  Level FlightAware
06:25AM 50.0870 6.0720 124° Southeast 524 603 37,000  Level FlightAware
06:26AM 50.0390 6.1840 124° Southeast 524 603 37,000  Level FlightAware
06:27AM 49.9920 6.2900 125° Southeast 524 603 37,000  Level FlightAware
06:27AM 49.9480 6.3900 124° Southeast 524 603 37,000  Level FlightAware
06:28AM 49.8990 6.5010 124° Southeast 524 603 37,000  Level FlightAware
06:28AM 49.8490 6.6160 124° Southeast 525 604 37,000 60 Level FlightAware
06:29AM 49.8030 6.7180 125° Southeast 525 604 37,100  Climbing FlightAware
06:30AM 49.7460 6.8480 124° Southeast 526 605 37,000 -120 Descending FlightAware
06:30AM 49.6930 6.9660 125° Southeast 526 605 37,000 60 Level FlightAware
06:31AM 49.6510 7.0580 125° Southeast 525 604 37,100  Climbing FlightAware
06:31AM 49.5950 7.1810 125° Southeast 526 605 37,000 -120 Descending FlightAware
06:32AM 49.5430 7.2850 128° Southeast 529 609 37,000 60 Level FlightAware
06:33AM 49.4850 7.3880 131° Southeast 530 610 37,100  Climbing FlightAware
06:33AM 49.4310 7.4810 132° Southeast 529 609 37,000 -120 Descending FlightAware
06:34AM 49.3600 7.6040 132° Southeast 528 608 37,000  Level FlightAware
06:34AM 49.3090 7.6940 131° Southeast 527 606 37,000  Level FlightAware
06:35AM 49.2490 7.7970 132° Southeast 527 606 37,000  Level FlightAware
06:36AM 49.1920 7.8950 132° Southeast 526 605 37,000  Level FlightAware
06:36AM 49.1390 7.9890 131° Southeast 526 605 37,000 60 Level FlightAware
06:37AM 49.0770 8.0940 132° Southeast 526 605 37,100  Climbing FlightAware
06:37AM 49.0300 8.1750 131° Southeast 525 604 37,000 -120 Descending FlightAware
06:38AM 48.9740 8.2710 132° Southeast 525 604 37,000  Level FlightAware
06:39AM 48.9110 8.3750 133° Southeast 525 604 37,000 60 Level FlightAware
06:39AM 48.8500 8.4790 132° Southeast 523 602 37,100  Climbing FlightAware
06:40AM 48.7970 8.5690 132° Southeast 523 602 37,000  Descending FlightAware
06:40AM 48.7380 8.6670 132° Southeast 523 602 37,100 60 Climbing FlightAware
06:41AM 48.6840 8.7560 133° Southeast 523 602 37,100 -120 Level FlightAware
06:41AM 48.6270 8.8510 132° Southeast 523 602 37,000 -120 Descending FlightAware
06:42AM 48.5670 8.9460 134° Southeast 525 604 37,000 60 Level FlightAware
06:43AM 48.5010 9.0380 137° Southeast 525 604 37,100  Climbing FlightAware
06:43AM 48.4470 9.1130 137° Southeast 527 606 37,000 -120 Descending FlightAware
06:44AM 48.3800 9.2020 139° Southeast 527 606 37,000  Level FlightAware
06:44AM 48.3200 9.2810 139° Southeast 526 605 37,000  Level FlightAware
06:45AM 48.2490 9.3730 139° Southeast 526 605 37,000  Level FlightAware
06:46AM 48.1860 9.4580 138° Southeast 527 606 37,000  Level FlightAware
06:46AM 48.1220 9.5430 138° Southeast 528 608 37,000  Level FlightAware
06:47AM 48.0630 9.6090 143° Southeast 532 612 37,000  Level FlightAware
06:47AM 47.9860 9.6930 144° Southeast 533 613 37,000 60 Level FlightAware
06:48AM 47.9220 9.7620 144° Southeast 533 613 37,100 60 Climbing FlightAware
06:49AM 47.8290 9.8650 143° Southeast 533 613 37,100 -120 Level FlightAware
06:49AM 47.7650 9.9350 144° Southeast 533 613 37,000 -120 Descending FlightAware
06:50AM 47.6920 10.0160 143° Southeast 533 613 37,000  Level FlightAware
06:50AM 47.6260 10.0880 144° Southeast 532 612 37,000  Level FlightAware
06:51AM 47.5550 10.1660 143° Southeast 531 611 37,000  Level FlightAware
06:51AM 47.4880 10.2420 143° Southeast 530 610 37,000  Level FlightAware
06:52AM 47.4200 10.3150 144° Southeast 529 609 37,000  Level FlightAware
06:53AM 47.3620 10.3770 144° Southeast 529 609 37,000  Level FlightAware
06:53AM 47.2840 10.4620 144° Southeast 527 606 37,000  Level FlightAware
06:54AM 47.1990 10.5530 144° Southeast 520 598 37,000  Level FlightAware
06:55AM 47.1320 10.6250 144° Southeast 526 605 37,000 60 Level FlightAware
06:55AM 47.0460 10.7210 143° Southeast 523 602 37,100  Climbing FlightAware
06:56AM 46.9880 10.7970 138° Southeast 510 587 37,000  Descending FlightAware
06:56AM 46.9290 10.8880 133° Southeast 509 586 37,100  Climbing FlightAware
06:57AM 46.8720 10.9800 132° Southeast 508 585 37,000 -120 Descending FlightAware
06:58AM 46.8250 11.0540 133° Southeast 509 586 37,000 60 Level FlightAware
06:58AM 46.7650 11.1480 133° Southeast 515 593 37,100  Climbing FlightAware
06:59AM 46.7020 11.2470 133° Southeast 515 593 37,000 -120 Descending FlightAware
06:59AM 46.6570 11.3150 134° Southeast 515 593 37,000  Level FlightAware
07:00AM 46.5860 11.4260 133° Southeast 515 593 37,000 60 Level FlightAware
07:01AM 46.5270 11.5160 134° Southeast 515 593 37,100  Climbing FlightAware
07:01AM 46.4730 11.6000 133° Southeast 517 595 37,000 -120 Descending FlightAware
07:02AM 46.4150 11.6870 134° Southeast 517 595 37,000  Level FlightAware
07:02AM 46.3540 11.7800 134° Southeast 516 594 37,000  Level FlightAware
07:03AM 46.2900 11.8780 133° Southeast 515 593 37,000  Level FlightAware
07:03AM 46.2440 11.9470 134° Southeast 515 593 37,000  Level FlightAware
07:04AM 46.1710 12.0570 134° Southeast 514 592 37,000  Level FlightAware
07:05AM 46.1160 12.1400 134° Southeast 512 589 37,000 60 Level FlightAware
07:05AM 46.0570 12.2290 134° Southeast 512 589 37,100  Climbing FlightAware
07:06AM 45.9970 12.3200 133° Southeast 512 589 37,000 -120 Descending FlightAware
07:06AM 45.9510 12.3970 131° Southeast 509 586 37,000  Level FlightAware
07:07AM 45.8990 12.4930 128° Southeast 506 582 37,000  Level FlightAware
07:08AM 45.8490 12.5860 128° Southeast 507 583 37,000  Level FlightAware
07:08AM 45.7990 12.6800 127° Southeast 507 583 37,000  Level FlightAware
07:09AM 45.7520 12.7690 127° Southeast 506 582 37,000  Level FlightAware
07:09AM 45.7010 12.8670 127° Southeast 505 581 37,000 60 Level FlightAware
07:10AM 45.6570 12.9500 127° Southeast 505 581 37,100  Climbing FlightAware
07:10AM 45.6030 13.0510 127° Southeast 506 582 37,000 -120 Descending FlightAware
07:11AM 45.5500 13.1500 127° Southeast 505 581 37,000  Level FlightAware
07:12AM 45.5010 13.2420 127° Southeast 504 580 37,000  Level FlightAware
07:12AM 45.4530 13.3350 126° Southeast 503 579 37,000 60 Level FlightAware
07:13AM 45.4020 13.4290 128° Southeast 503 579 37,100  Climbing FlightAware
07:13AM 45.3530 13.5180 128° Southeast 503 579 37,000 -120 Descending FlightAware
07:14AM 45.3040 13.6100 127° Southeast 501 577 37,000  Level FlightAware
07:15AM 45.2470 13.7140 128° Southeast 499 574 37,000  Level FlightAware
07:15AM 45.1990 13.8020 128° Southeast 499 574 37,000  Level FlightAware
07:16AM 45.1500 13.8920 128° Southeast 498 573 37,000  Level FlightAware
07:16AM 45.0990 13.9850 128° Southeast 497 572 37,000  Level FlightAware
07:17AM 45.0500 14.0750 128° Southeast 498 573 37,000  Level FlightAware
07:18AM 44.9930 14.1800 127° Southeast 498 573 37,000  Level FlightAware
07:18AM 44.9530 14.2520 128° Southeast 498 573 37,000  Level FlightAware
07:19AM 44.9040 14.3390 128° Southeast 498 573 37,000  Level FlightAware
07:19AM 44.8510 14.4360 128° Southeast 499 574 37,000  Level FlightAware
07:20AM 44.8010 14.5250 128° Southeast 499 574 37,000  Level FlightAware
07:21AM 44.7510 14.6110 129° Southeast 498 573 37,000  Level FlightAware
07:21AM 44.7010 14.7000 128° Southeast 498 573 37,000  Level FlightAware
07:22AM 44.6490 14.7940 128° Southeast 497 572 37,000  Level FlightAware
07:22AM 44.5930 14.8930 128° Southeast 497 572 37,000  Level FlightAware
07:23AM 44.5400 14.9860 129° Southeast 497 572 37,000  Level FlightAware
07:24AM 44.4900 15.0740 129° Southeast 497 572 37,000  Level FlightAware
07:24AM 44.4400 15.1590 129° Southeast 493 567 37,000  Level FlightAware
07:25AM 44.3750 15.2720 129° Southeast 492 566 37,000  Level FlightAware
07:26AM 44.3230 15.3640 128° Southeast 492 566 37,000  Level FlightAware
07:26AM 44.2740 15.4490 129° Southeast 492 566 37,000  Level FlightAware
07:27AM 44.2300 15.5240 129° Southeast 492 566 37,000  Level FlightAware
07:27AM 44.1790 15.6140 128° Southeast 491 565 37,000  Level FlightAware
07:28AM 44.1270 15.7000 130° Southeast 492 566 37,000  Level FlightAware
07:28AM 44.0690 15.7990 129° Southeast 492 566 37,000  Level FlightAware
07:29AM 44.0160 15.8910 129° Southeast 491 565 37,000  Level FlightAware
07:30AM 43.9640 15.9800 129° Southeast 491 565 37,000 60 Level FlightAware
07:30AM 43.9170 16.0590 130° Southeast 492 566 37,100  Climbing FlightAware
07:31AM 43.8620 16.1500 130° Southeast 494 568 37,000 -120 Descending FlightAware
07:31AM 43.8140 16.2310 129° Southeast 494 568 37,000  Level FlightAware
07:32AM 43.7610 16.3200 129° Southeast 494 568 37,000  Level FlightAware
07:33AM 43.7110 16.4060 129° Southeast 493 567 37,000 60 Level FlightAware
07:33AM 43.6560 16.4970 130° Southeast 493 567 37,100 60 Climbing FlightAware
07:34AM 43.6050 16.5800 130° Southeast 492 566 37,100 -120 Level FlightAware
07:34AM 43.5540 16.6680 129° Southeast 491 565 37,000 -120 Descending FlightAware
07:35AM 43.5020 16.7500 131° Southeast 491 565 37,000  Level FlightAware
07:35AM 43.4520 16.8350 129° Southeast 497 572 37,000  Level FlightAware
07:36AM 43.4000 16.9210 130° Southeast 500 575 37,000  Level FlightAware
07:37AM 43.3480 17.0060 130° Southeast 502 578 37,000  Level FlightAware
07:37AM 43.2950 17.0920 130° Southeast 506 582 37,000  Level FlightAware
07:38AM 43.2430 17.1780 130° Southeast 505 581 37,000  Level FlightAware
07:38AM 43.1890 17.2620 131° Southeast 509 586 37,000  Level FlightAware
07:39AM 43.1350 17.3520 129° Southeast 512 589 37,000  Level FlightAware
07:40AM 43.0800 17.4400 131° Southeast 520 598 37,000  Level FlightAware
07:40AM 43.0270 17.5250 130° Southeast 522 601 37,000  Level FlightAware
07:41AM 42.9720 17.6160 130° Southeast 525 604 37,000  Level FlightAware
07:41AM 42.9130 17.7100 131° Southeast 527 606 37,000  Level FlightAware
07:42AM 42.8550 17.8010 131° Southeast 528 608 37,000  Level FlightAware
07:43AM 42.7990 17.8910 130° Southeast 527 606 37,000  Level FlightAware
07:43AM 42.7440 17.9770 131° Southeast 526 605 37,000  Level FlightAware
07:44AM 42.6870 18.0670 131° Southeast 524 603 37,000  Level FlightAware
07:44AM 42.6380 18.1440 131° Southeast 522 601 37,000  Level FlightAware
07:45AM 42.5760 18.2340 133° Southeast 520 598 37,000  Level FlightAware
07:45AM 42.5200 18.3110 135° Southeast 520 598 37,000  Level FlightAware
07:46AM 42.4570 18.3920 136° Southeast 519 597 37,000 60 Level FlightAware
07:47AM 42.3800 18.4900 137° Southeast 517 595 37,100 60 Climbing FlightAware
07:47AM 42.3250 18.5610 136° Southeast 515 593 37,100 -120 Level FlightAware
07:48AM 42.2620 18.6430 136° Southeast 512 589 37,000 -120 Descending FlightAware
07:48AM 42.2010 18.7230 136° Southeast 510 587 37,000  Level FlightAware
07:49AM 42.1400 18.8020 136° Southeast 510 587 37,000  Level FlightAware
07:50AM 42.0860 18.8720 136° Southeast 509 586 37,000  Level FlightAware
07:50AM 42.0240 18.9510 137° Southeast 509 586 37,000  Level FlightAware
07:51AM 41.9650 19.0250 137° Southeast 508 585 37,000  Level FlightAware
07:51AM 41.9090 19.0970 136° Southeast 509 586 37,000  Level FlightAware
07:52AM 41.8480 19.1750 136° Southeast 508 585 37,000  Level FlightAware
07:53AM 41.7720 19.2730 136° Southeast 511 588 37,000  Level FlightAware
07:53AM 41.7110 19.3530 136° Southeast 512 589 37,000  Level FlightAware
07:54AM 41.6560 19.4250 136° Southeast 515 593 37,000  Level FlightAware
07:54AM 41.5960 19.5030 136° Southeast 520 598 37,000  Level FlightAware
07:55AM 41.5320 19.5860 136° Southeast 523 602 37,000  Level FlightAware
07:56AM 41.4770 19.6580 136° Southeast 525 604 37,000  Level FlightAware
07:56AM 41.4150 19.7370 136° Southeast 526 605 37,000  Level FlightAware
07:57AM 41.3510 19.8180 136° Southeast 529 609 37,000  Level FlightAware
07:57AM 41.2890 19.8970 136° Southeast 531 611 37,000  Level FlightAware
07:58AM 41.2260 19.9790 136° Southeast 531 611 37,000  Level FlightAware
07:58AM 41.1680 20.0530 136° Southeast 531 611 37,000  Level FlightAware
07:59AM 41.1070 20.1300 136° Southeast 531 611 37,000  Level FlightAware
08:00AM 41.0460 20.2090 136° Southeast 531 611 37,000 60 Level FlightAware
08:00AM 40.9780 20.2940 137° Southeast 529 609 37,100  Climbing FlightAware
08:01AM 40.9180 20.3700 136° Southeast 526 605 37,000  Descending FlightAware
08:01AM 40.8570 20.4470 136° Southeast 524 603 37,100  Climbing FlightAware
08:02AM 40.7940 20.5260 136° Southeast 523 602 37,000 -120 Descending FlightAware
08:03AM 40.7350 20.5990 137° Southeast 522 601 37,000  Level FlightAware
08:03AM 40.6710 20.6790 137° Southeast 518 596 37,000 60 Level FlightAware
08:04AM 40.6090 20.7570 136° Southeast 517 595 37,100 60 Climbing FlightAware
08:04AM 40.5460 20.8350 137° Southeast 519 597 37,100 -120 Level FlightAware
08:05AM 40.4890 20.9050 137° Southeast 519 597 37,000 -120 Descending FlightAware
08:06AM 40.4230 20.9870 137° Southeast 521 600 37,000  Level FlightAware
08:06AM 40.3610 21.0630 137° Southeast 519 597 37,000  Level FlightAware
08:07AM 40.3030 21.1340 137° Southeast 519 597 37,000 60 Level FlightAware
08:07AM 40.2420 21.2090 137° Southeast 519 597 37,100  Climbing FlightAware
08:08AM 40.1780 21.2860 137° Southeast 519 597 37,000 -120 Descending FlightAware
08:08AM 40.1210 21.3570 136° Southeast 520 598 37,000  Level FlightAware
08:09AM 40.0610 21.4300 137° Southeast 521 600 37,000  Level FlightAware
08:10AM 39.9940 21.5110 137° Southeast 522 601 37,000  Level FlightAware
08:10AM 39.9290 21.5880 138° Southeast 520 598 37,000  Level FlightAware
08:10AM 39.9010 21.6180 141° Southeast 520 598 37,000  Level FlightAware
08:11AM 39.8130 21.7180 139° Southeast 521 600 37,000  Level FlightAware
08:12AM 39.7440 21.7940 140° Southeast 523 602 37,000  Level FlightAware
08:12AM 39.6860 21.8590 139° Southeast 523 602 37,000  Level FlightAware
08:13AM 39.6250 21.9270 139° Southeast 523 602 37,000  Level FlightAware
08:14AM 39.5560 22.0050 139° Southeast 524 603 37,000  Level FlightAware
08:14AM 39.4870 22.0810 140° Southeast 523 602 37,000  Level FlightAware
08:15AM 39.4270 22.1480 139° Southeast 523 602 37,000  Level FlightAware
08:15AM 39.3620 22.2220 139° Southeast 521 600 37,000  Level FlightAware
08:16AM 39.2940 22.2950 140° Southeast 522 601 37,000  Level FlightAware
08:17AM 39.2310 22.3640 140° Southeast 522 601 37,000  Level FlightAware
08:17AM 39.1710 22.4300 140° Southeast 522 601 37,000  Level FlightAware
08:18AM 39.1070 22.5010 139° Southeast 514 592 37,000  Level FlightAware
08:18AM 39.0510 22.5630 139° Southeast 511 588 37,000 60 Level FlightAware
08:19AM 38.9800 22.6400 140° Southeast 509 586 37,100 60 Climbing FlightAware
08:19AM 38.9130 22.7130 140° Southeast 513 590 37,100 -120 Level FlightAware
08:20AM 38.8380 22.7940 140° Southeast 511 588 37,000 -120 Descending FlightAware
08:21AM 38.7630 22.8750 140° Southeast 510 587 37,000  Level FlightAware
08:21AM 38.7020 22.9400 140° Southeast 510 587 37,000  Level FlightAware
08:22AM 38.6340 23.0140 140° Southeast 511 588 37,000 60 Level FlightAware
08:23AM 38.5760 23.0760 140° Southeast 512 589 37,100  Climbing FlightAware
08:23AM 38.5100 23.1460 140° Southeast 513 590 37,000 -120 Descending FlightAware
08:24AM 38.4420 23.2200 140° Southeast 512 589 37,000  Level FlightAware
08:24AM 38.3810 23.2840 141° Southeast 511 588 37,000  Level FlightAware
08:25AM 38.3160 23.3540 140° Southeast 512 589 37,000  Level FlightAware
08:25AM 38.2590 23.4140 140° Southeast 512 589 37,000  Level FlightAware
08:26AM 38.1910 23.4870 140° Southeast 510 587 37,000  Level FlightAware
08:27AM 38.1250 23.5560 141° Southeast 511 588 37,000 60 Level FlightAware
08:27AM 38.0740 23.6090 141° Southeast 511 588 37,100  Climbing FlightAware
08:28AM 37.9980 23.6900 140° Southeast 509 586 37,000  Descending FlightAware
08:28AM 37.9310 23.7600 141° Southeast 507 583 37,100 60 Climbing FlightAware
08:29AM 37.8780 23.8210 138° Southeast 519 597 37,100 -120 Level FlightAware
08:30AM 37.8180 23.9090 131° Southeast 527 606 37,000 -120 Descending FlightAware
08:30AM 37.7700 23.9800 131° Southeast 526 605 37,000 60 Level FlightAware
08:31AM 37.7090 24.0800 128° Southeast 535 616 37,100  Climbing FlightAware
08:31AM 37.6650 24.1670 123° Southeast 535 616 37,000  Descending FlightAware
08:32AM 37.6190 24.2590 122° Southeast 534 615 37,100  Climbing FlightAware
08:33AM 37.5710 24.3530 123° Southeast 533 613 37,000 -120 Descending FlightAware
08:33AM 37.5300 24.4390 121° Southeast 535 616 37,000  Level FlightAware
08:34AM 37.4840 24.5340 121° Southeast 534 615 37,000  Level FlightAware
08:34AM 37.4370 24.6290 122° Southeast 533 613 37,000  Level FlightAware
08:35AM 37.3910 24.7240 121° Southeast 533 613 37,000  Level FlightAware
08:35AM 37.3500 24.8060 122° Southeast 533 613 37,000  Level FlightAware
08:36AM 37.3020 24.9030 122° Southeast 532 612 37,000  Level FlightAware
08:37AM 37.2540 25.0000 122° Southeast 530 610 37,000  Level FlightAware
08:37AM 37.2070 25.0930 122° Southeast 529 609 37,000  Level FlightAware
08:38AM 37.1660 25.1760 122° Southeast 527 606 37,000 60 Level FlightAware
08:38AM 37.1170 25.2750 122° Southeast 526 605 37,100  Climbing FlightAware
08:39AM 37.0760 25.3550 123° Southeast 526 605 37,000 -120 Descending FlightAware
08:39AM 37.0280 25.4500 122° Southeast 525 604 37,000  Level FlightAware
08:40AM 36.9880 25.5300 122° Southeast 523 602 37,000  Level FlightAware
08:41AM 36.9390 25.6290 122° Southeast 524 603 37,000  Level FlightAware
08:41AM 36.8940 25.7170 123° Southeast 523 602 37,000  Level FlightAware
08:42AM 36.8480 25.8080 122° Southeast 522 601 37,000  Level FlightAware
08:42AM 36.8020 25.8970 123° Southeast 523 602 37,000  Level FlightAware
08:43AM 36.7550 25.9890 123° Southeast 523 602 37,000  Level FlightAware
08:44AM 36.7130 26.0730 122° Southeast 523 602 37,000  Level FlightAware
08:44AM 36.6670 26.1620 123° Southeast 523 602 37,000  Level FlightAware
08:45AM 36.6190 26.2560 122° Southeast 522 601 37,000  Level FlightAware
08:45AM 36.5740 26.3440 122° Southeast 523 602 37,000  Level FlightAware
08:46AM 36.5310 26.4250 123° Southeast 523 602 37,000  Level FlightAware
08:46AM 36.4830 26.5190 122° Southeast 523 602 37,000  Level FlightAware
08:47AM 36.4360 26.6070 124° Southeast 525 604 37,000  Level FlightAware
08:48AM 36.3880 26.7010 122° Southeast 525 604 37,000  Level FlightAware
08:48AM 36.3470 26.7800 123° Southeast 526 605 37,000  Level FlightAware
08:49AM 36.2990 26.8730 123° Southeast 526 605 37,000  Level FlightAware
08:49AM 36.2590 26.9490 123° Southeast 527 606 37,000  Level FlightAware
08:50AM 36.2000 27.0590 124° Southeast 527 606 37,000  Level FlightAware
08:51AM 36.1560 27.1440 123° Southeast 527 606 37,000  Level FlightAware
08:51AM 36.1060 27.2370 124° Southeast 527 606 37,000  Level FlightAware
08:52AM 36.0500 27.3430 123° Southeast 526 605 37,000  Level FlightAware
08:53AM 36.0040 27.4310 123° Southeast 526 605 37,000  Level FlightAware
08:53AM 35.9490 27.5340 123° Southeast 526 605 37,000  Level FlightAware
08:54AM 35.9010 27.6220 124° Southeast 525 604 37,000 60 Level FlightAware
08:54AM 35.8580 27.7040 123° Southeast 525 604 37,100  Climbing FlightAware
08:55AM 35.8100 27.7950 123° Southeast 524 603 37,000 -120 Descending FlightAware
08:56AM 35.7700 27.8720 123° Southeast 524 603 37,000  Level FlightAware
08:56AM 35.7270 27.9530 123° Southeast 524 603 37,000  Level FlightAware
08:57AM 35.6870 28.0290 123° Southeast 524 603 37,000  Level FlightAware
08:57AM 35.6100 28.1620 125° Southeast 521 600 37,000  Level FlightAware
08:58AM 35.5540 28.2650 124° Southeast 520 598 37,000  Level FlightAware
08:59AM 35.5140 28.3380 124° Southeast 519 597 37,000  Level FlightAware
08:59AM 35.4650 28.4260 124° Southeast 518 596 37,000  Level FlightAware
09:00AM 35.4230 28.5040 123° Southeast 518 596 37,000  Level FlightAware
09:00AM 35.3780 28.5850 124° Southeast 518 596 37,000  Level FlightAware
09:01AM 35.3230 28.6850 124° Southeast 518 596 37,000 60 Level FlightAware
09:02AM 35.2740 28.7740 124° Southeast 519 597 37,100  Climbing FlightAware
09:02AM 35.2320 28.8500 124° Southeast 518 596 37,000 -120 Descending FlightAware
09:03AM 35.1910 28.9260 123° Southeast 518 596 37,000  Level FlightAware
09:03AM 35.1500 29.0030 123° Southeast 518 596 37,000  Level FlightAware
09:04AM 35.1100 29.0780 123° Southeast 518 596 37,000  Level FlightAware
09:05AM 35.0390 29.1960 126° Southeast 513 590 37,000  Level FlightAware
09:05AM 34.9950 29.2750 124° Southeast 513 590 37,000  Level FlightAware
09:06AM 34.9540 29.3490 124° Southeast 513 590 37,000  Level FlightAware
09:06AM 34.8880 29.4650 125° Southeast 511 588 37,000  Level FlightAware
09:07AM 34.8260 29.5740 125° Southeast 510 587 37,000  Level FlightAware
09:08AM 34.7780 29.6590 124° Southeast 511 588 37,000  Level FlightAware
09:08AM 34.7370 29.7300 125° Southeast 510 587 37,000  Level FlightAware
09:09AM 34.6930 29.8110 123° Southeast 508 585 37,000  Level FlightAware
09:09AM 34.6520 29.8890 123° Southeast 509 586 37,000  Level FlightAware
09:10AM 34.6130 29.9710 120° Southeast 509 586 37,000  Level FlightAware
09:11AM 34.5660 30.0700 120° Southeast 509 586 37,000  Level FlightAware
09:12AM 34.4890 30.2280 121° Southeast 516 594 37,000  Level FlightAware
09:12AM 34.4430 30.3260 120° Southeast 515 593 37,000  Level FlightAware
09:13AM 34.4010 30.4100 121° Southeast 514 592 37,000  Level FlightAware
09:13AM 34.3580 30.5000 120° Southeast 514 592 37,000  Level FlightAware
09:14AM 34.3220 30.5740 120° Southeast 513 590 37,000 60 Level FlightAware
09:15AM 34.2820 30.6550 121° Southeast 512 589 37,100  Climbing FlightAware
09:15AM 34.2260 30.7710 120° Southeast 510 587 37,000 -120 Descending FlightAware
09:16AM 34.1940 30.8350 121° Southeast 509 586 37,000  Level FlightAware
09:16AM 34.1410 30.9420 121° Southeast 509 586 37,000  Level FlightAware
09:17AM 34.1000 31.0280 120° Southeast 509 586 37,000  Level FlightAware
09:18AM 34.0570 31.1150 121° Southeast 508 585 37,000  Level FlightAware
09:18AM 34.0140 31.2000 121° Southeast 507 583 37,000  Level FlightAware
09:19AM 33.9720 31.2850 121° Southeast 507 583 37,000 60 Level FlightAware
09:19AM 33.9290 31.3700 121° Southeast 506 582 37,100  Climbing FlightAware
09:20AM 33.8920 31.4450 121° Southeast 506 582 37,000 -120 Descending FlightAware
09:21AM 33.8440 31.5410 121° Southeast 505 581 37,000  Level FlightAware
09:21AM 33.8070 31.6160 121° Southeast 505 581 37,000  Level FlightAware
09:22AM 33.7660 31.6980 121° Southeast 506 582 37,000  Level FlightAware
09:22AM 33.7210 31.7870 121° Southeast 506 582 37,000  Level FlightAware
09:23AM 33.6720 31.8830 122° Southeast 506 582 37,000  Level FlightAware
09:24AM 33.6290 31.9690 121° Southeast 506 582 37,000 60 Level FlightAware
09:24AM 33.5920 32.0410 122° Southeast 506 582 37,100  Climbing FlightAware
09:25AM 33.5500 32.1250 121° Southeast 501 577 37,000 -120 Descending FlightAware
09:25AM 33.5010 32.2210 121° Southeast 502 578 37,000  Level FlightAware
09:26AM 33.4640 32.2930 122° Southeast 503 579 37,000  Level FlightAware
09:26AM 33.4250 32.3690 122° Southeast 502 578 37,000  Level FlightAware
09:27AM 33.3780 32.4600 122° Southeast 502 578 37,000  Level FlightAware
09:28AM 33.3330 32.5480 121° Southeast 506 582 37,000 -600 Level FlightAware
09:28AM 33.2920 32.6270 122° Southeast 508 585 36,300 -1,680 Descending FlightAware
09:29AM 33.2580 32.6940 121° Southeast 505 581 35,100 -2,520 Descending FlightAware
09:29AM 33.1950 32.8140 122° Southeast 499 574 33,000 -2,580 Descending FlightAware
09:30AM 33.1540 32.8930 122° Southeast 492 566 31,600 -2,340 Descending FlightAware
09:31AM 33.0940 33.0090 122° Southeast 479 551 29,800 -2,100 Descending FlightAware
09:31AM 33.0570 33.0800 122° Southeast 469 540 28,700 -2,040 Descending FlightAware
09:32AM 33.0240 33.1450 121° Southeast 458 527 27,600 -960 Descending FlightAware
09:33AM 32.9860 33.2160 123° Southeast 458 527 27,600 -1,380 Level FlightAware
09:33AM 32.9280 33.3260 122° Southeast 452 520 25,600 -2,820 Descending FlightAware
09:34AM 32.8740 33.4280 122° Southeast 412 474 23,100 -2,580 Descending FlightAware
09:35AM 32.8400 33.4940 122° Southeast 404 465 22,100 -1,740 Descending FlightAware
09:36AM 32.7980 33.5730 122° Southeast 389 448 20,900 -1,680 Descending FlightAware
09:36AM 32.7690 33.6290 122° Southeast 380 437 20,000 -1,680 Descending FlightAware
09:37AM 32.7370 33.6900 122° Southeast 372 428 19,100 -1,740 Descending FlightAware
09:37AM 32.7020 33.7560 122° Southeast 360 414 18,000 -1,500 Descending FlightAware
09:38AM 32.6700 33.8130 124° Southeast 350 403 17,200 -1,500 Descending FlightAware
09:38AM 32.6380 33.8750 121° Southeast 342 394 16,200 -1,620 Descending FlightAware
09:39AM 32.6120 33.9210 124° Southeast 336 387 15,400 -1,440 Descending FlightAware
09:40AM 32.5760 33.9780 127° Southeast 326 375 14,600 -1,320 Descending FlightAware
09:40AM 32.5460 34.0210 130° Southeast 317 365 13,900 -1,320 Descending FlightAware
09:41AM 32.5090 34.0710 131° Southeast 328 377 13,100 -1,320 Descending FlightAware
09:41AM 32.4770 34.1140 131° Southeast 329 379 12,400 -1,320 Descending FlightAware
09:42AM 32.4430 34.1630 129° Southeast 320 368 11,700 -1,200 Descending FlightAware
09:43AM 32.4090 34.2100 131° Southeast 305 351 11,000 -1,140 Descending FlightAware
09:43AM 32.3800 34.2520 129° Southeast 297 342 10,400 -1,200 Descending FlightAware
09:44AM 32.3560 34.2850 131° Southeast 292 336 9,800 -1,200 Descending FlightAware
09:44AM 32.3370 34.3110 131° Southeast 286 329 9,400 -1,260 Descending FlightAware
09:44AM 32.3110 34.3480 130° Southeast 278 320 8,800 -1,140 Descending FlightAware
09:45AM 32.2990 34.3640 132° Southeast 275 316 8,600 -1,080 Descending FlightAware
09:45AM 32.2790 34.3920 130° Southeast 268 308 8,100 -1,200 Descending FlightAware
09:45AM 32.2610 34.4170 130° Southeast 269 310 7,700 -1,080 Descending FlightAware
09:46AM 32.2500 34.4330 129° Southeast 277 319 7,500 -900 Descending FlightAware
09:46AM 32.2340 34.4550 131° Southeast 277 319 7,200 -1,080 Descending FlightAware
09:46AM 32.2190 34.4810 124° Southeast 276 318 6,800 -1,080 Descending FlightAware
09:47AM 32.2060 34.5070 121° Southeast 271 312 6,500 -1,080 Descending FlightAware
09:47AM 32.1960 34.5260 122° Southeast 276 318 6,200 -420 Descending FlightAware
09:47AM 32.1810 34.5560 121° Southeast 276 318 6,200 -960 Level FlightAware
09:48AM 32.1630 34.5910 121° Southeast 276 318 5,400 -1,680 Descending FlightAware
09:48AM 32.1490 34.6160 123° Southeast 274 315 5,100 -480 Descending FlightAware
09:48AM 32.1360 34.6400 123° Southeast 273 314 5,100  Level FlightAware
09:49AM 32.1230 34.6640 123° Southeast 250 288 5,100 120 Level FlightAware
09:49AM 32.1110 34.6860 123° Southeast 234 269 5,200 120 Climbing FlightAware
09:49AM 32.1020 34.7020 124° Southeast 216 249 5,200 -120 Level FlightAware
09:50AM 32.0830 34.7360 123° Southeast 209 241 5,100 -120 Descending FlightAware
09:50AM 32.0710 34.7570 124° Southeast 208 239 5,100  Level FlightAware
09:51AM 32.0600 34.7760 124° Southeast 207 238 5,100 -180 Level FlightAware
09:51AM 32.0450 34.7930 136° Southeast 205 236 5,000 -480 Descending FlightAware
09:51AM 32.0300 34.8090 138° Southeast 207 238 4,800 -360 Descending FlightAware
09:52AM 32.0200 34.8210 135° Southeast 208 239 4,800 -420 Level FlightAware
09:52AM 32.0000 34.8430 137° Southeast 199 229 4,500 -1,020 Descending FlightAware
09:53AM 31.9810 34.8660 134° Southeast 184 212 3,800 -1,440 Descending FlightAware
09:53AM 31.9720 34.8810 125° Southeast 180 207 3,300 -1,020 Descending FlightAware
09:54AM 31.9760 34.9100 81° East 174 200 2,900 -900 Descending FlightAware
09:54AM 31.9800 34.9270 74° East 161 185 2,400 -900 Descending FlightAware
09:55AM 31.9930 34.9620 66° East 167 192 2,000 -840 Descending FlightAware
09:55AM 31.9970 34.9640 23° Northeast 165 190 1,900 -1,140 Descending FlightAware
09:55AM 32.0030 34.9650 North 158 182 1,800 -840 Descending FlightAware
09:55AM 32.0160 34.9610 345° North 152 175 1,500 -660 Descending FlightAware
09:55AM 32.0250 34.9530 323° Northwest 154 177 1,400 -600 Descending FlightAware
09:55AM 32.0260 34.9470 281° West 155 178 1,300 -1,020 Descending FlightAware
09:56AM 32.0220 34.9220 259° West 148 170 800 -900 Descending FlightAware
09:56AM 32.0200 34.9080 260° West 149 171 600 -720 Descending FlightAware
09:57AM 32.0170 34.8880 260° West 152 175 300 -780 Descending FlightAware
09:57AM 32.0160 34.8820 259° West 140 161 -1,500 Descending FlightAware